sensor_id;sensor_type;location;lat;lon;timestamp;pressure;altitude;pressure_sealevel;temperature;humidity
64792;BME280;51226;47.504;19.074;2023-03-23T00:01:58;100139.59;;;11.31;58.04
64792;BME280;51226;47.504;19.074;2023-03-23T00:05:05;100150.81;;;11.28;58.26
64792;BME280;51226;47.504;19.074;2023-03-23T00:08:08;100148.97;;;11.26;58.37
64792;BME280;51226;47.504;19.074;2023-03-23T00:11:19;100152.50;;;11.26;58.06
64792;BME280;51226;47.504;19.074;2023-03-23T00:14:21;100148.00;;;11.22;58.17
64792;BME280;51226;47.504;19.074;2023-03-23T00:17:23;100148.75;;;11.18;58.21
64792;BME280;51226;47.504;19.074;2023-03-23T00:20:26;100142.63;;;11.16;58.00
64792;BME280;51226;47.504;19.074;2023-03-23T00:23:31;100140.81;;;11.15;58.01
64792;BME280;51226;47.504;19.074;2023-03-23T00:26:33;100142.47;;;11.11;58.04
64792;BME280;51226;47.504;19.074;2023-03-23T00:29:35;100140.66;;;11.10;57.94
64792;BME280;51226;47.504;19.074;2023-03-23T00:32:38;100138.97;;;11.11;57.75
64792;BME280;51226;47.504;19.074;2023-03-23T00:35:40;100138.87;;;11.08;58.37
64792;BME280;51226;47.504;19.074;2023-03-23T00:38:42;100134.47;;;11.07;58.22
64792;BME280;51226;47.504;19.074;2023-03-23T00:41:46;100133.66;;;11.08;58.13
64792;BME280;51226;47.504;19.074;2023-03-23T00:44:48;100130.88;;;11.03;58.28
64792;BME280;51226;47.504;19.074;2023-03-23T00:47:52;100133.44;;;11.02;58.13
64792;BME280;51226;47.504;19.074;2023-03-23T00:50:54;100131.59;;;10.98;58.58
64792;BME280;51226;47.504;19.074;2023-03-23T00:53:56;100124.53;;;10.95;58.52
64792;BME280;51226;47.504;19.074;2023-03-23T00:56:57;100120.94;;;10.91;58.53
64792;BME280;51226;47.504;19.074;2023-03-23T00:59:59;100119.97;;;10.88;58.48
64792;BME280;51226;47.504;19.074;2023-03-23T01:03:01;100125.94;;;10.85;58.89
64792;BME280;51226;47.504;19.074;2023-03-23T01:06:12;100118.81;;;10.80;58.76
64792;BME280;51226;47.504;19.074;2023-03-23T01:09:18;100119.66;;;10.79;58.64
64792;BME280;51226;47.504;19.074;2023-03-23T01:12:23;100117.84;;;10.76;58.63
64792;BME280;51226;47.504;19.074;2023-03-23T01:15:27;100109.91;;;10.73;58.93
64792;BME280;51226;47.504;19.074;2023-03-23T01:18:29;100116.81;;;10.71;58.83
64792;BME280;51226;47.504;19.074;2023-03-23T01:21:31;100115.78;;;10.67;58.82
64792;BME280;51226;47.504;19.074;2023-03-23T01:24:33;100118.44;;;10.69;58.51
64792;BME280;51226;47.504;19.074;2023-03-23T01:27:35;100109.59;;;10.64;58.74
64792;BME280;51226;47.504;19.074;2023-03-23T01:30:37;100111.31;;;10.63;58.61
64792;BME280;51226;47.504;19.074;2023-03-23T01:33:40;100116.50;;;10.62;58.76
64792;BME280;51226;47.504;19.074;2023-03-23T01:36:42;100117.25;;;10.59;58.71
64792;BME280;51226;47.504;19.074;2023-03-23T01:39:44;100106.62;;;10.53;58.85
64792;BME280;51226;47.504;19.074;2023-03-23T01:42:46;100101.28;;;10.48;59.11
64792;BME280;51226;47.504;19.074;2023-03-23T01:45:48;100108.81;;;10.41;59.41
64792;BME280;51226;47.504;19.074;2023-03-23T01:48:50;100107.78;;;10.35;59.44
64792;BME280;51226;47.504;19.074;2023-03-23T01:51:54;100091.97;;;10.31;59.47
64792;BME280;51226;47.504;19.074;2023-03-23T01:54:58;100097.91;;;10.27;59.76
64792;BME280;51226;47.504;19.074;2023-03-23T01:58:00;100101.25;;;10.23;60.08
64792;BME280;51226;47.504;19.074;2023-03-23T02:01:06;100105.47;;;10.19;60.05
64792;BME280;51226;47.504;19.074;2023-03-23T02:04:09;100102.81;;;10.17;60.07
64792;BME280;51226;47.504;19.074;2023-03-23T02:07:14;100100.19;;;10.17;60.17
64792;BME280;51226;47.504;19.074;2023-03-23T02:10:17;100095.59;;;10.10;60.49
64792;BME280;51226;47.504;19.074;2023-03-23T02:13:18;100098.13;;;10.09;60.66
64792;BME280;51226;47.504;19.074;2023-03-23T02:26:19;100113.28;;;9.95;61.33
64792;BME280;51226;47.504;19.074;2023-03-23T02:33:05;100124.44;;;9.91;61.96
64792;BME280;51226;47.504;19.074;2023-03-23T02:42:57;100122.53;;;9.87;62.65
64792;BME280;51226;47.504;19.074;2023-03-23T02:46:00;100129.72;;;9.94;62.24
64792;BME280;51226;47.504;19.074;2023-03-23T02:49:06;100128.47;;;9.82;62.55
64792;BME280;51226;47.504;19.074;2023-03-23T02:52:16;100128.31;;;9.78;63.03
64792;BME280;51226;47.504;19.074;2023-03-23T02:55:22;100128.97;;;9.72;63.79
64792;BME280;51226;47.504;19.074;2023-03-23T02:58:27;100130.72;;;9.73;63.37
64792;BME280;51226;47.504;19.074;2023-03-23T03:04:34;100124.66;;;9.73;63.30
64792;BME280;51226;47.504;19.074;2023-03-23T03:07:47;100126.94;;;9.65;63.48
64792;BME280;51226;47.504;19.074;2023-03-23T03:14:23;100133.69;;;9.60;63.69
64792;BME280;51226;47.504;19.074;2023-03-23T03:17:29;100125.00;;;9.59;63.89
64792;BME280;51226;47.504;19.074;2023-03-23T03:20:33;100129.22;;;9.56;64.20
64792;BME280;51226;47.504;19.074;2023-03-23T03:23:40;100126.56;;;9.54;64.16
64792;BME280;51226;47.504;19.074;2023-03-23T03:26:49;100125.63;;;9.52;64.34
64792;BME280;51226;47.504;19.074;2023-03-23T03:29:56;100140.34;;;9.52;64.57
64792;BME280;51226;47.504;19.074;2023-03-23T03:33:01;100140.22;;;9.49;64.45
64792;BME280;51226;47.504;19.074;2023-03-23T03:36:05;100138.34;;;9.44;64.79
64792;BME280;51226;47.504;19.074;2023-03-23T03:39:13;100132.13;;;9.41;64.86
64792;BME280;51226;47.504;19.074;2023-03-23T03:42:17;100140.62;;;9.37;64.78
64792;BME280;51226;47.504;19.074;2023-03-23T03:45:20;100145.78;;;9.35;64.90
64792;BME280;51226;47.504;19.074;2023-03-23T03:48:21;100147.50;;;9.35;64.67
64792;BME280;51226;47.504;19.074;2023-03-23T03:51:24;100144.84;;;9.33;64.41
64792;BME280;51226;47.504;19.074;2023-03-23T03:54:27;100149.16;;;9.33;64.14
64792;BME280;51226;47.504;19.074;2023-03-23T03:57:28;100141.09;;;9.26;64.33
64792;BME280;51226;47.504;19.074;2023-03-23T04:00:34;100146.31;;;9.26;64.17
64792;BME280;51226;47.504;19.074;2023-03-23T04:03:37;100148.78;;;9.23;64.58
64792;BME280;51226;47.504;19.074;2023-03-23T04:06:39;100146.91;;;9.19;64.60
64792;BME280;51226;47.504;19.074;2023-03-23T04:09:44;100152.84;;;9.17;64.74
64792;BME280;51226;47.504;19.074;2023-03-23T04:12:48;100154.50;;;9.15;64.86
64792;BME280;51226;47.504;19.074;2023-03-23T04:15:54;100154.19;;;9.07;65.23
64792;BME280;51226;47.504;19.074;2023-03-23T04:18:56;100156.78;;;9.05;65.15
64792;BME280;51226;47.504;19.074;2023-03-23T04:21:59;100156.63;;;9.02;65.18
64792;BME280;51226;47.504;19.074;2023-03-23T04:25:01;100162.59;;;9.00;65.23
64792;BME280;51226;47.504;19.074;2023-03-23T04:28:08;100159.19;;;9.01;65.16
64792;BME280;51226;47.504;19.074;2023-03-23T04:31:12;100156.44;;;8.98;65.31
64792;BME280;51226;47.504;19.074;2023-03-23T04:34:17;100152.00;;;8.95;65.50
64792;BME280;51226;47.504;19.074;2023-03-23T04:37:19;100158.03;;;8.94;65.58
64792;BME280;51226;47.504;19.074;2023-03-23T04:40:23;100150.38;;;8.97;65.43
64792;BME280;51226;47.504;19.074;2023-03-23T04:43:25;100154.84;;;9.01;65.19
64792;BME280;51226;47.504;19.074;2023-03-23T04:46:29;100157.50;;;9.03;65.33
64792;BME280;51226;47.504;19.074;2023-03-23T04:49:32;100154.97;;;9.04;65.04
64792;BME280;51226;47.504;19.074;2023-03-23T04:52:36;100161.84;;;9.02;65.11
64792;BME280;51226;47.504;19.074;2023-03-23T04:55:38;100163.53;;;9.02;65.14
64792;BME280;51226;47.504;19.074;2023-03-23T04:58:43;100158.34;;;9.02;65.05
64792;BME280;51226;47.504;19.074;2023-03-23T05:01:47;100154.91;;;9.03;65.34
64792;BME280;51226;47.504;19.074;2023-03-23T05:04:49;100162.91;;;9.07;65.16
64792;BME280;51226;47.504;19.074;2023-03-23T05:07:52;100158.47;;;9.05;65.77
64792;BME280;51226;47.504;19.074;2023-03-23T05:10:57;100160.31;;;9.07;65.49
64792;BME280;51226;47.504;19.074;2023-03-23T05:13:59;100164.84;;;9.13;65.18
64792;BME280;51226;47.504;19.074;2023-03-23T05:17:02;100163.44;;;9.21;64.83
64792;BME280;51226;47.504;19.074;2023-03-23T05:20:05;100171.84;;;9.37;64.86
64792;BME280;51226;47.504;19.074;2023-03-23T05:23:14;100178.03;;;9.39;65.18
64792;BME280;51226;47.504;19.074;2023-03-23T05:26:16;100176.25;;;9.38;64.98
64792;BME280;51226;47.504;19.074;2023-03-23T05:29:18;100170.16;;;9.60;64.26
64792;BME280;51226;47.504;19.074;2023-03-23T05:32:20;100178.28;;;9.68;63.63
64792;BME280;51226;47.504;19.074;2023-03-23T05:35:22;100169.34;;;9.61;63.56
64792;BME280;51226;47.504;19.074;2023-03-23T05:38:25;100167.59;;;9.61;63.48
64792;BME280;51226;47.504;19.074;2023-03-23T05:41:28;100161.72;;;9.66;63.33
64792;BME280;51226;47.504;19.074;2023-03-23T05:44:30;100155.94;;;9.74;62.08
64792;BME280;51226;47.504;19.074;2023-03-23T05:47:33;100156.50;;;9.90;59.90
64792;BME280;51226;47.504;19.074;2023-03-23T05:50:37;100153.84;;;9.88;59.98
64792;BME280;51226;47.504;19.074;2023-03-23T05:53:39;100147.03;;;9.92;59.74
64792;BME280;51226;47.504;19.074;2023-03-23T05:56:41;100149.37;;;10.08;58.52
64792;BME280;51226;47.504;19.074;2023-03-23T05:59:44;100145.37;;;10.18;58.49
64792;BME280;51226;47.504;19.074;2023-03-23T06:02:47;100148.34;;;10.29;57.86
64792;BME280;51226;47.504;19.074;2023-03-23T06:05:51;100143.13;;;10.29;57.85
64792;BME280;51226;47.504;19.074;2023-03-23T06:08:54;100144.09;;;10.31;57.41
64792;BME280;51226;47.504;19.074;2023-03-23T06:11:58;100152.19;;;10.38;56.42
64792;BME280;51226;47.504;19.074;2023-03-23T06:15:01;100159.16;;;10.38;56.46
64792;BME280;51226;47.504;19.074;2023-03-23T06:18:04;100168.00;;;10.43;56.04
64792;BME280;51226;47.504;19.074;2023-03-23T06:21:06;100158.91;;;10.56;55.50
64792;BME280;51226;47.504;19.074;2023-03-23T06:24:11;100161.88;;;10.67;55.06
64792;BME280;51226;47.504;19.074;2023-03-23T06:27:13;100160.47;;;10.77;54.97
64792;BME280;51226;47.504;19.074;2023-03-23T06:30:17;100150.03;;;10.77;55.39
64792;BME280;51226;47.504;19.074;2023-03-23T06:33:19;100151.16;;;10.85;56.10
64792;BME280;51226;47.504;19.074;2023-03-23T06:36:26;100152.47;;;10.99;55.54
64792;BME280;51226;47.504;19.074;2023-03-23T06:39:29;100146.97;;;11.17;54.01
64792;BME280;51226;47.504;19.074;2023-03-23T06:42:37;100151.63;;;11.27;53.99
64792;BME280;51226;47.504;19.074;2023-03-23T06:45:41;100162.37;;;11.37;54.08
64792;BME280;51226;47.504;19.074;2023-03-23T06:48:45;100156.69;;;11.50;54.98
64792;BME280;51226;47.504;19.074;2023-03-23T06:51:47;100166.78;;;11.66;54.03
64792;BME280;51226;47.504;19.074;2023-03-23T06:54:50;100166.56;;;11.89;52.48
64792;BME280;51226;47.504;19.074;2023-03-23T06:57:52;100167.84;;;12.02;53.14
64792;BME280;51226;47.504;19.074;2023-03-23T07:00:56;100165.59;;;12.16;51.69
64792;BME280;51226;47.504;19.074;2023-03-23T07:03:58;100158.25;;;12.34;51.51
64792;BME280;51226;47.504;19.074;2023-03-23T07:07:01;100164.75;;;12.49;51.39
64792;BME280;51226;47.504;19.074;2023-03-23T07:10:07;100161.56;;;12.60;50.21
64792;BME280;51226;47.504;19.074;2023-03-23T07:13:10;100162.00;;;12.77;50.03
64792;BME280;51226;47.504;19.074;2023-03-23T07:16:13;100166.03;;;13.00;49.96
64792;BME280;51226;47.504;19.074;2023-03-23T07:19:15;100168.22;;;13.18;49.46
64792;BME280;51226;47.504;19.074;2023-03-23T07:22:17;100173.28;;;13.46;48.99
64792;BME280;51226;47.504;19.074;2023-03-23T07:25:21;100173.03;;;13.74;48.43
64792;BME280;51226;47.504;19.074;2023-03-23T07:28:23;100175.44;;;14.05;48.35
64792;BME280;51226;47.504;19.074;2023-03-23T07:31:25;100168.06;;;14.30;47.46
64792;BME280;51226;47.504;19.074;2023-03-23T07:34:27;100175.69;;;14.62;47.15
64792;BME280;51226;47.504;19.074;2023-03-23T07:37:30;100179.03;;;15.04;45.09
64792;BME280;51226;47.504;19.074;2023-03-23T07:40:33;100178.81;;;15.48;42.91
64792;BME280;51226;47.504;19.074;2023-03-23T07:43:36;100175.38;;;15.53;42.84
64792;BME280;51226;47.504;19.074;2023-03-23T07:46:39;100185.66;;;15.36;43.50
64792;BME280;51226;47.504;19.074;2023-03-23T07:49:43;100189.56;;;15.65;44.50
64792;BME280;51226;47.504;19.074;2023-03-23T07:52:45;100185.97;;;16.22;41.34
64792;BME280;51226;47.504;19.074;2023-03-23T07:55:48;100183.81;;;16.68;40.16
64792;BME280;51226;47.504;19.074;2023-03-23T07:58:51;100184.31;;;17.21;38.97
64792;BME280;51226;47.504;19.074;2023-03-23T08:01:54;100184.19;;;18.85;35.79
64792;BME280;51226;47.504;19.074;2023-03-23T08:04:57;100185.59;;;20.51;32.49
64792;BME280;51226;47.504;19.074;2023-03-23T08:08:03;100182.66;;;21.89;31.78
64792;BME280;51226;47.504;19.074;2023-03-23T08:11:06;100174.75;;;22.54;30.31
64792;BME280;51226;47.504;19.074;2023-03-23T08:14:11;100174.72;;;21.86;30.24
64792;BME280;51226;47.504;19.074;2023-03-23T08:17:13;100184.31;;;21.06;32.78
64792;BME280;51226;47.504;19.074;2023-03-23T08:20:16;100168.66;;;20.74;33.20
64792;BME280;51226;47.504;19.074;2023-03-23T08:23:20;100188.16;;;20.70;33.73
64792;BME280;51226;47.504;19.074;2023-03-23T08:26:23;100178.34;;;20.80;33.14
64792;BME280;51226;47.504;19.074;2023-03-23T08:29:26;100189.69;;;21.02;33.41
64792;BME280;51226;47.504;19.074;2023-03-23T08:32:28;100193.88;;;21.26;32.99
64792;BME280;51226;47.504;19.074;2023-03-23T08:35:30;100187.31;;;21.70;31.68
64792;BME280;51226;47.504;19.074;2023-03-23T08:38:32;100186.97;;;21.96;29.80
64792;BME280;51226;47.504;19.074;2023-03-23T08:41:36;100184.22;;;22.06;31.53
64792;BME280;51226;47.504;19.074;2023-03-23T08:44:38;100188.28;;;22.36;28.93
64792;BME280;51226;47.504;19.074;2023-03-23T08:47:40;100183.41;;;22.00;28.92
64792;BME280;51226;47.504;19.074;2023-03-23T08:50:44;100189.03;;;21.73;30.99
64792;BME280;51226;47.504;19.074;2023-03-23T08:53:47;100192.22;;;22.02;31.03
64792;BME280;51226;47.504;19.074;2023-03-23T08:56:49;100181.28;;;22.30;30.42
64792;BME280;51226;47.504;19.074;2023-03-23T08:59:51;100180.84;;;22.61;28.63
64792;BME280;51226;47.504;19.074;2023-03-23T09:02:56;100177.72;;;22.31;29.86
64792;BME280;51226;47.504;19.074;2023-03-23T09:06:03;100170.13;;;22.00;29.60
64792;BME280;51226;47.504;19.074;2023-03-23T09:09:06;100169.97;;;22.13;29.23
64792;BME280;51226;47.504;19.074;2023-03-23T09:12:08;100170.72;;;22.23;29.85
64792;BME280;51226;47.504;19.074;2023-03-23T09:15:13;100168.56;;;22.52;29.73
64792;BME280;51226;47.504;19.074;2023-03-23T09:18:16;100167.50;;;22.66;28.21
64792;BME280;51226;47.504;19.074;2023-03-23T09:21:21;100163.72;;;22.17;29.58
64792;BME280;51226;47.504;19.074;2023-03-23T09:24:23;100169.50;;;22.48;29.02
64792;BME280;51226;47.504;19.074;2023-03-23T09:27:25;100161.31;;;22.64;29.06
64792;BME280;51226;47.504;19.074;2023-03-23T09:30:29;100161.56;;;22.45;28.65
64792;BME280;51226;47.504;19.074;2023-03-23T09:33:32;100153.88;;;21.52;29.83
64792;BME280;51226;47.504;19.074;2023-03-23T09:36:37;100161.53;;;21.78;31.83
64792;BME280;51226;47.504;19.074;2023-03-23T09:39:40;100155.09;;;21.99;29.99
64792;BME280;51226;47.504;19.074;2023-03-23T09:52:32;100147.97;;;23.70;29.58
64792;BME280;51226;47.504;19.074;2023-03-23T09:55:35;100142.66;;;23.70;27.54
64792;BME280;51226;47.504;19.074;2023-03-23T09:59:00;100152.97;;;23.86;27.40
64792;BME280;51226;47.504;19.074;2023-03-23T10:05:23;100134.63;;;22.08;30.09
64792;BME280;51226;47.504;19.074;2023-03-23T10:08:29;100133.47;;;22.30;29.87
64792;BME280;51226;47.504;19.074;2023-03-23T10:15:10;100129.56;;;22.54;29.60
64792;BME280;51226;47.504;19.074;2023-03-23T10:18:25;100123.81;;;22.18;29.94
64792;BME280;51226;47.504;19.074;2023-03-23T10:21:38;100114.09;;;22.19;30.21
64792;BME280;51226;47.504;19.074;2023-03-23T10:34:10;100088.75;;;21.95;31.27
64792;BME280;51226;47.504;19.074;2023-03-23T10:37:22;100092.03;;;22.15;30.40
64792;BME280;51226;47.504;19.074;2023-03-23T10:40:27;100087.41;;;22.28;30.23
64792;BME280;51226;47.504;19.074;2023-03-23T10:43:32;100089.56;;;21.98;30.98
64792;BME280;51226;47.504;19.074;2023-03-23T10:50:00;100101.25;;;21.03;31.66
64792;BME280;51226;47.504;19.074;2023-03-23T10:53:13;100091.78;;;20.77;32.21
64792;BME280;51226;47.504;19.074;2023-03-23T10:56:25;100088.41;;;20.53;33.29
64792;BME280;51226;47.504;19.074;2023-03-23T10:59:29;100077.94;;;20.36;32.78
64792;BME280;51226;47.504;19.074;2023-03-23T11:02:35;100077.97;;;20.33;33.12
64792;BME280;51226;47.504;19.074;2023-03-23T11:05:54;100086.62;;;20.55;32.76
64792;BME280;51226;47.504;19.074;2023-03-23T11:09:34;100086.59;;;20.63;32.60
64792;BME280;51226;47.504;19.074;2023-03-23T11:12:36;100075.91;;;20.72;32.14
64792;BME280;51226;47.504;19.074;2023-03-23T11:15:41;100077.78;;;20.57;32.69
64792;BME280;51226;47.504;19.074;2023-03-23T11:18:42;100070.63;;;20.71;31.59
64792;BME280;51226;47.504;19.074;2023-03-23T11:21:52;100066.16;;;20.76;31.98
64792;BME280;51226;47.504;19.074;2023-03-23T11:24:58;100061.41;;;21.12;31.36
64792;BME280;51226;47.504;19.074;2023-03-23T11:28:02;100045.09;;;21.51;30.33
64792;BME280;51226;47.504;19.074;2023-03-23T11:31:05;100034.53;;;22.10;30.21
64792;BME280;51226;47.504;19.074;2023-03-23T11:34:16;100047.41;;;22.39;29.32
64792;BME280;51226;47.504;19.074;2023-03-23T11:40:31;100051.13;;;22.26;28.43
64792;BME280;51226;47.504;19.074;2023-03-23T11:43:34;100054.22;;;21.95;29.24
64792;BME280;51226;47.504;19.074;2023-03-23T11:50:10;100047.56;;;21.64;29.37
64792;BME280;51226;47.504;19.074;2023-03-23T11:53:56;100044.13;;;21.55;29.57
64792;BME280;51226;47.504;19.074;2023-03-23T11:56:55;100046.34;;;21.16;30.56
64792;BME280;51226;47.504;19.074;2023-03-23T11:59:58;100038.62;;;20.92;30.97
64792;BME280;51226;47.504;19.074;2023-03-23T12:06:42;100031.53;;;21.74;29.53
64792;BME280;51226;47.504;19.074;2023-03-23T12:13:16;100031.59;;;22.83;28.29
64792;BME280;51226;47.504;19.074;2023-03-23T12:20:16;100014.63;;;24.18;27.14
64792;BME280;51226;47.504;19.074;2023-03-23T12:26:41;99990.47;;;25.26;24.39
64792;BME280;51226;47.504;19.074;2023-03-23T12:36:44;99980.38;;;25.06;25.29
64792;BME280;51226;47.504;19.074;2023-03-23T12:43:28;99975.91;;;24.39;25.88
64792;BME280;51226;47.504;19.074;2023-03-23T12:46:40;99975.81;;;24.42;26.32
64792;BME280;51226;47.504;19.074;2023-03-23T12:49:53;99969.53;;;24.79;25.81
64792;BME280;51226;47.504;19.074;2023-03-23T12:53:02;99976.47;;;24.86;24.87
64792;BME280;51226;47.504;19.074;2023-03-23T12:56:21;99973.41;;;24.67;25.35
64792;BME280;51226;47.504;19.074;2023-03-23T12:59:54;99969.59;;;24.07;26.24
64792;BME280;51226;47.504;19.074;2023-03-23T13:03:07;99965.00;;;24.12;26.82
64792;BME280;51226;47.504;19.074;2023-03-23T13:06:28;99969.78;;;24.35;26.12
64792;BME280;51226;47.504;19.074;2023-03-23T13:09:52;99977.13;;;24.62;26.05
64792;BME280;51226;47.504;19.074;2023-03-23T13:12:57;99961.59;;;24.77;25.21
64792;BME280;51226;47.504;19.074;2023-03-23T13:22:34;99969.25;;;24.21;25.79
64792;BME280;51226;47.504;19.074;2023-03-23T13:32:10;99957.59;;;24.25;25.99
64792;BME280;51226;47.504;19.074;2023-03-23T13:35:13;99952.47;;;24.17;26.21
64792;BME280;51226;47.504;19.074;2023-03-23T13:38:23;99955.91;;;23.85;26.54
64792;BME280;51226;47.504;19.074;2023-03-23T13:41:26;99951.03;;;23.63;26.77
64792;BME280;51226;47.504;19.074;2023-03-23T13:47:49;99941.22;;;23.26;27.49
64792;BME280;51226;47.504;19.074;2023-03-23T13:50:59;99943.69;;;23.36;27.54
64792;BME280;51226;47.504;19.074;2023-03-23T13:54:20;99923.34;;;23.31;27.45
64792;BME280;51226;47.504;19.074;2023-03-23T13:57:37;99927.50;;;23.45;27.18
64792;BME280;51226;47.504;19.074;2023-03-23T14:01:00;99919.94;;;23.26;27.40
64792;BME280;51226;47.504;19.074;2023-03-23T14:04:07;99924.78;;;23.07;28.04
64792;BME280;51226;47.504;19.074;2023-03-23T14:07:11;99915.63;;;23.21;27.40
64792;BME280;51226;47.504;19.074;2023-03-23T14:10:17;99923.06;;;23.02;28.00
64792;BME280;51226;47.504;19.074;2023-03-23T14:16:52;99913.34;;;22.55;28.53
64792;BME280;51226;47.504;19.074;2023-03-23T14:19:56;99917.13;;;22.44;28.91
64792;BME280;51226;47.504;19.074;2023-03-23T14:23:00;99919.97;;;22.31;29.43
64792;BME280;51226;47.504;19.074;2023-03-23T14:26:11;99916.44;;;22.32;29.80
64792;BME280;51226;47.504;19.074;2023-03-23T14:29:14;99910.97;;;22.38;29.10
64792;BME280;51226;47.504;19.074;2023-03-23T14:32:18;99906.81;;;22.24;29.18
64792;BME280;51226;47.504;19.074;2023-03-23T14:35:34;99908.75;;;22.14;30.76
64792;BME280;51226;47.504;19.074;2023-03-23T14:38:37;99909.75;;;22.05;29.55
64792;BME280;51226;47.504;19.074;2023-03-23T14:41:41;99907.38;;;21.90;29.89
64792;BME280;51226;47.504;19.074;2023-03-23T14:44:47;99911.19;;;21.72;31.54
64792;BME280;51226;47.504;19.074;2023-03-23T14:47:56;99914.00;;;21.62;30.90
64792;BME280;51226;47.504;19.074;2023-03-23T14:51:01;99908.34;;;21.84;29.87
64792;BME280;51226;47.504;19.074;2023-03-23T14:54:08;99911.06;;;21.81;30.08
64792;BME280;51226;47.504;19.074;2023-03-23T14:57:15;99899.75;;;21.68;30.83
64792;BME280;51226;47.504;19.074;2023-03-23T15:00:22;99906.06;;;21.59;30.46
64792;BME280;51226;47.504;19.074;2023-03-23T15:03:25;99912.50;;;21.40;30.85
64792;BME280;51226;47.504;19.074;2023-03-23T15:06:31;99908.06;;;21.42;30.79
64792;BME280;51226;47.504;19.074;2023-03-23T15:09:39;99906.50;;;21.27;30.99
64792;BME280;51226;47.504;19.074;2023-03-23T15:12:46;99905.81;;;21.13;31.41
64792;BME280;51226;47.504;19.074;2023-03-23T15:15:48;99896.84;;;21.21;31.34
64792;BME280;51226;47.504;19.074;2023-03-23T15:29:01;99916.59;;;20.99;31.83
64792;BME280;51226;47.504;19.074;2023-03-23T15:32:04;99912.34;;;20.85;31.90
64792;BME280;51226;47.504;19.074;2023-03-23T15:35:21;99904.47;;;20.76;32.26
64792;BME280;51226;47.504;19.074;2023-03-23T15:38:29;99899.12;;;20.81;32.02
64792;BME280;51226;47.504;19.074;2023-03-23T15:41:32;99898.38;;;20.69;32.32
64792;BME280;51226;47.504;19.074;2023-03-23T15:44:35;99905.47;;;20.67;32.26
64792;BME280;51226;47.504;19.074;2023-03-23T15:50:46;99909.13;;;20.51;32.58
64792;BME280;51226;47.504;19.074;2023-03-23T15:53:50;99900.28;;;20.55;32.70
64792;BME280;51226;47.504;19.074;2023-03-23T15:56:53;99911.81;;;20.48;33.06
64792;BME280;51226;47.504;19.074;2023-03-23T15:59:54;99901.34;;;20.37;32.95
64792;BME280;51226;47.504;19.074;2023-03-23T16:03:05;99902.34;;;20.27;33.17
64792;BME280;51226;47.504;19.074;2023-03-23T16:06:14;99912.94;;;20.25;33.19
64792;BME280;51226;47.504;19.074;2023-03-23T16:09:26;99902.37;;;20.19;34.46
64792;BME280;51226;47.504;19.074;2023-03-23T16:12:29;99910.44;;;20.07;33.53
64792;BME280;51226;47.504;19.074;2023-03-23T16:15:32;99915.81;;;19.94;33.82
64792;BME280;51226;47.504;19.074;2023-03-23T16:18:35;99915.88;;;19.90;34.01
64792;BME280;51226;47.504;19.074;2023-03-23T16:21:39;99910.66;;;19.77;34.19
64792;BME280;51226;47.504;19.074;2023-03-23T16:24:42;99919.47;;;19.79;34.10
64792;BME280;51226;47.504;19.074;2023-03-23T16:27:45;99912.53;;;19.61;34.54
64792;BME280;51226;47.504;19.074;2023-03-23T16:30:54;99907.28;;;19.49;34.91
64792;BME280;51226;47.504;19.074;2023-03-23T16:33:57;99914.47;;;19.33;35.10
64792;BME280;51226;47.504;19.074;2023-03-23T16:37:00;99910.97;;;19.27;36.03
64792;BME280;51226;47.504;19.074;2023-03-23T16:40:04;99924.22;;;19.17;35.83
64792;BME280;51226;47.504;19.074;2023-03-23T16:43:09;99930.44;;;19.09;35.86
64792;BME280;51226;47.504;19.074;2023-03-23T16:46:12;99919.88;;;19.02;35.98
64792;BME280;51226;47.504;19.074;2023-03-23T16:49:16;99918.16;;;19.00;36.14
64792;BME280;51226;47.504;19.074;2023-03-23T16:52:18;99926.09;;;18.89;36.33
64792;BME280;51226;47.504;19.074;2023-03-23T16:55:22;99923.47;;;18.81;36.64
64792;BME280;51226;47.504;19.074;2023-03-23T16:58:27;99928.75;;;18.78;36.71
64792;BME280;51226;47.504;19.074;2023-03-23T17:01:30;99923.47;;;18.69;36.81
64792;BME280;51226;47.504;19.074;2023-03-23T17:04:33;99931.44;;;18.61;36.94
64792;BME280;51226;47.504;19.074;2023-03-23T17:07:37;99936.72;;;18.52;37.43
64792;BME280;51226;47.504;19.074;2023-03-23T17:10:41;99942.00;;;18.46;37.60
64792;BME280;51226;47.504;19.074;2023-03-23T17:13:45;99935.84;;;18.39;37.80
64792;BME280;51226;47.504;19.074;2023-03-23T17:16:48;99942.91;;;18.34;38.36
64792;BME280;51226;47.504;19.074;2023-03-23T17:19:51;99943.81;;;18.27;38.29
64792;BME280;51226;47.504;19.074;2023-03-23T17:22:54;99946.44;;;18.19;38.69
64792;BME280;51226;47.504;19.074;2023-03-23T17:25:57;99944.69;;;18.20;38.63
64792;BME280;51226;47.504;19.074;2023-03-23T17:28:59;99948.22;;;18.11;38.77
64792;BME280;51226;47.504;19.074;2023-03-23T17:32:04;99940.28;;;18.02;38.97
64792;BME280;51226;47.504;19.074;2023-03-23T17:35:07;99945.56;;;18.00;39.20
64792;BME280;51226;47.504;19.074;2023-03-23T17:38:15;99951.72;;;17.94;39.12
64792;BME280;51226;47.504;19.074;2023-03-23T17:41:19;99953.47;;;17.88;39.38
64792;BME280;51226;47.504;19.074;2023-03-23T17:44:25;99958.72;;;17.85;40.57
64792;BME280;51226;47.504;19.074;2023-03-23T17:47:28;99968.38;;;17.75;39.92
64792;BME280;51226;47.504;19.074;2023-03-23T17:50:33;99964.84;;;17.70;40.07
64792;BME280;51226;47.504;19.074;2023-03-23T17:53:36;99962.19;;;17.67;39.99
64792;BME280;51226;47.504;19.074;2023-03-23T17:56:39;99966.59;;;17.75;39.83
64792;BME280;51226;47.504;19.074;2023-03-23T17:59:43;99971.88;;;17.68;40.00
64792;BME280;51226;47.504;19.074;2023-03-23T18:02:48;99971.88;;;17.68;40.16